createdAt,value
2022-10-03T06:43:07.154Z,12.15
2022-10-03T06:46:17.774Z,12.27
2022-10-03T06:49:25.678Z,12.48
2022-10-03T06:52:18.328Z,12.83
2022-10-03T06:55:22.651Z,12.98
2022-10-03T06:58:06.890Z,13.13
2022-10-03T07:00:53.566Z,12.94
2022-10-03T07:03:54.561Z,13.04
2022-10-03T07:06:51.267Z,12.96
2022-10-03T07:10:12.684Z,13.17
2022-10-03T07:13:02.424Z,13.68
2022-10-03T07:16:25.041Z,14.07
2022-10-03T07:19:16.380Z,14.37
2022-10-03T07:22:26.938Z,14.59
2022-10-03T07:25:25.278Z,14.76
2022-10-03T07:28:14.327Z,14.95
2022-10-03T07:31:02.417Z,15.56
2022-10-03T07:33:52.284Z,16.18
2022-10-03T07:36:50.688Z,16.46
2022-10-03T07:39:50.922Z,16.74
2022-10-03T07:42:52.628Z,17.19
2022-10-03T07:45:34.928Z,17.87
2022-10-03T07:48:35.039Z,18.16
2022-10-03T07:51:24.461Z,17.81
2022-10-03T07:54:27.664Z,17.58
2022-10-03T07:57:24.707Z,17.68
2022-10-03T08:00:17.151Z,17.09
2022-10-03T08:03:17.831Z,17.38
2022-10-03T08:06:19.474Z,17.72
2022-10-03T08:09:18.867Z,18.23
2022-10-03T08:12:16.617Z,19.22
2022-10-03T08:14:57.076Z,19.43
2022-10-03T08:17:55.630Z,18.73
2022-10-03T08:20:43.501Z,19.33
2022-10-03T08:23:34.105Z,19.16
2022-10-03T08:26:17.268Z,15.06
2022-10-03T08:29:12.586Z,13.52
2022-10-03T08:32:18.746Z,12.89
2022-10-03T08:35:20.735Z,12.86
2022-10-03T08:38:15.609Z,13.13
2022-10-03T08:41:33.270Z,13.39
2022-10-03T08:44:30.520Z,13.09
2022-10-03T08:47:29.168Z,13.15
2022-10-03T08:50:34.340Z,13.84
2022-10-03T08:53:49.735Z,13.93
2022-10-03T08:56:28.347Z,14.10
2022-10-03T08:59:28.768Z,14.28
2022-10-03T09:02:22.206Z,15.16
2022-10-03T09:05:31.479Z,15.62
2022-10-03T09:08:39.640Z,16.08
2022-10-03T09:11:45.303Z,15.90
2022-10-03T09:14:37.128Z,14.56
2022-10-03T09:17:34.665Z,14.39
2022-10-03T09:20:20.819Z,14.49
2022-10-03T09:23:20.143Z,15.35
2022-10-03T09:26:11.128Z,16.29
2022-10-03T09:29:10.566Z,16.45
2022-10-03T09:32:06.823Z,16.72
2022-10-03T09:35:10.686Z,16.53
2022-10-03T09:38:05.079Z,16.65
2022-10-03T09:41:21.543Z,19.42
2022-10-03T09:44:13.468Z,20.90
2022-10-03T09:47:23.804Z,22.71
2022-10-03T09:50:25.486Z,20.13
2022-10-03T09:53:24.546Z,20.82
2022-10-03T09:56:22.497Z,20.28
2022-10-03T09:59:19.926Z,24.22
2022-10-03T10:01:55.291Z,21.37
2022-10-03T10:04:56.315Z,19.78
2022-10-03T10:07:59.792Z,19.20
2022-10-03T10:11:09.684Z,19.39
2022-10-03T10:14:08.821Z,20.05
2022-10-03T10:16:53.477Z,18.19
2022-10-03T10:19:53.040Z,16.62
2022-10-03T10:22:52.043Z,17.32
2022-10-03T10:25:48.753Z,17.16
2022-10-03T10:28:59.418Z,17.60
2022-10-03T10:32:01.333Z,18.25
2022-10-03T10:35:17.591Z,17.18
2022-10-03T10:38:25.925Z,17.04
2022-10-03T10:41:32.589Z,16.63
2022-10-03T10:44:33.968Z,16.96
2022-10-03T10:47:44.729Z,16.38
2022-10-03T10:50:44.808Z,17.23
2022-10-03T10:53:50.013Z,16.77
2022-10-03T10:57:01.418Z,16.46
2022-10-03T11:00:00.788Z,17.34
2022-10-03T11:03:06.265Z,18.80
2022-10-03T11:05:54.310Z,20.89
2022-10-03T11:09:00.011Z,23.62
2022-10-03T11:12:18.065Z,28.10
2022-10-03T11:15:23.735Z,27.41
2022-10-03T11:18:30.953Z,27.27
2022-10-03T11:21:38.794Z,26.32
2022-10-03T11:24:26.657Z,29.21
2022-10-03T11:27:34.472Z,27.24
2022-10-03T11:30:19.549Z,28.04
2022-10-03T11:33:27.736Z,28.77
2022-10-03T11:36:28.962Z,29.58
2022-10-03T11:39:05.570Z,30.12
2022-10-03T11:41:47.711Z,29.63
2022-10-03T11:44:23.572Z,29.11
2022-10-03T11:47:16.514Z,29.87
2022-10-03T11:50:13.175Z,30.86
2022-10-03T11:52:55.905Z,30.54
2022-10-03T11:55:32.028Z,28.79
2022-10-03T11:58:15.107Z,25.32
2022-10-03T12:00:48.039Z,23.27
2022-10-03T12:03:27.120Z,21.89
2022-10-03T12:06:13.711Z,17.82
2022-10-03T12:08:59.088Z,16.73
2022-10-03T12:11:31.080Z,16.57
2022-10-03T12:14:15.388Z,16.40
2022-10-03T12:17:03.181Z,15.97
2022-10-03T12:19:35.944Z,16.40
2022-10-03T12:22:18.052Z,16.79
2022-10-03T12:24:49.788Z,16.61
2022-10-03T12:27:30.128Z,16.49
2022-10-03T12:30:01.525Z,16.67
2022-10-03T12:32:49.550Z,17.60
2022-10-03T12:35:34.812Z,18.96
2022-10-03T12:38:24.655Z,19.39
2022-10-03T12:41:04.689Z,20.23
2022-10-03T12:43:50.979Z,21.17
2022-10-03T12:46:30.909Z,21.57
2022-10-03T12:49:05.020Z,20.31
2022-10-03T12:51:52.259Z,20.61
2022-10-03T12:54:39.292Z,20.72
2022-10-03T12:57:47.425Z,20.88
2022-10-03T13:00:22.270Z,21.56
2022-10-03T13:03:07.404Z,22.42
2022-10-03T13:05:53.620Z,23.05
2022-10-03T13:08:39.881Z,22.01
2022-10-03T13:11:26.003Z,21.28
2022-10-03T13:14:08.945Z,20.76
2022-10-03T13:16:44.065Z,20.86
2022-10-03T13:19:17.594Z,20.47
2022-10-03T13:22:06.449Z,20.17
2022-10-03T13:24:40.487Z,19.25
2022-10-03T13:27:32.419Z,18.67
2022-10-03T13:30:07.165Z,19.50
2022-10-03T13:32:37.839Z,21.29
2022-10-03T13:35:37.380Z,22.06
2022-10-03T13:38:22.196Z,20.75
2022-10-03T13:41:00.170Z,19.19
2022-10-03T13:43:35.816Z,18.58
2022-10-03T13:46:12.090Z,19.89
2022-10-03T13:48:42.566Z,20.89
2022-10-03T13:51:23.096Z,21.56
2022-10-03T13:54:01.274Z,21.79
2022-10-03T13:56:41.894Z,21.84
2022-10-03T13:59:28.721Z,21.68
2022-10-03T14:02:05.127Z,21.10
2022-10-03T14:05:01.679Z,20.73
2022-10-03T14:07:39.797Z,20.20
2022-10-03T14:10:26.446Z,18.93
2022-10-03T14:13:19.782Z,19.27
2022-10-03T14:15:54.047Z,19.68
2022-10-03T14:18:53.588Z,19.50
2022-10-03T14:21:41.937Z,19.20
2022-10-03T14:24:26.458Z,19.32
2022-10-03T14:27:01.274Z,18.95
2022-10-03T14:29:37.928Z,19.23
2022-10-03T14:32:42.239Z,19.39
2022-10-03T14:35:10.774Z,18.67
2022-10-03T14:37:45.866Z,18.47
2022-10-03T14:40:20.009Z,18.64
2022-10-03T14:43:09.699Z,18.75
2022-10-03T14:45:44.805Z,19.06
2022-10-03T14:48:19.219Z,19.24
2022-10-03T14:50:54.654Z,18.87
2022-10-03T14:53:29.893Z,18.97
2022-10-03T14:56:01.848Z,19.08
2022-10-03T14:58:33.666Z,19.00
2022-10-03T15:01:14.422Z,19.46
2022-10-03T15:03:46.801Z,19.15
2022-10-03T15:06:53.687Z,19.46
2022-10-03T15:09:43.460Z,20.44
2022-10-03T15:12:17.399Z,21.07
2022-10-03T15:14:50.461Z,21.13
2022-10-03T15:17:22.808Z,20.31
2022-10-03T15:19:55.222Z,21.26
2022-10-03T15:22:36.895Z,22.03
2022-10-03T15:25:11.105Z,23.14
2022-10-03T15:27:42.659Z,22.75
2022-10-03T15:30:22.394Z,21.12
2022-10-03T15:32:52.399Z,19.39
2022-10-03T15:35:26.396Z,19.25
2022-10-03T15:37:59.731Z,21.05
2022-10-03T15:40:33.950Z,21.38
2022-10-03T15:43:09.378Z,20.01
2022-10-03T15:45:39.760Z,20.74
2022-10-03T15:48:14.239Z,21.40
2022-10-03T15:50:43.825Z,22.56
2022-10-03T15:53:38.145Z,21.14
2022-10-03T15:56:12.335Z,22.36
2022-10-03T15:58:48.236Z,21.87
2022-10-03T16:01:21.935Z,21.40
2022-10-03T16:03:53.685Z,22.30
2022-10-03T16:06:24.519Z,22.97
2022-10-03T16:09:06.190Z,23.98
2022-10-03T16:11:45.648Z,23.92
2022-10-03T16:14:21.872Z,22.99
2022-10-03T16:16:55.029Z,20.95
2022-10-03T16:19:31.772Z,19.73
2022-10-03T16:22:12.846Z,19.29
2022-10-03T16:24:51.511Z,19.49
2022-10-03T16:27:24.848Z,19.70
2022-10-03T16:30:16.143Z,19.33
2022-10-03T16:32:51.605Z,18.94
2022-10-03T16:35:33.793Z,18.60
2022-10-03T16:38:04.708Z,18.29
2022-10-03T16:46:37.792Z,16.84
2022-10-03T16:49:35.283Z,16.70
2022-10-03T16:52:07.709Z,16.36
2022-10-03T16:54:39.098Z,16.04
2022-10-03T16:57:13.845Z,15.70
2022-10-03T16:59:48.316Z,15.49
2022-10-03T17:02:22.404Z,15.39
2022-10-03T17:04:56.042Z,15.38
2022-10-03T17:07:26.206Z,15.40
2022-10-03T17:09:57.297Z,15.34
2022-10-03T17:12:30.517Z,15.33
2022-10-03T17:15:05.914Z,15.33
2022-10-03T17:17:46.918Z,15.21
2022-10-03T17:20:20.902Z,15.15
2022-10-03T17:22:57.299Z,14.96
2022-10-03T17:25:43.362Z,14.77
2022-10-03T17:28:17.482Z,14.63
2022-10-03T17:30:51.266Z,14.53
2022-10-03T17:33:25.769Z,14.48
2022-10-03T17:36:05.167Z,14.32
2022-10-03T17:38:49.682Z,14.12
2022-10-03T17:41:23.712Z,13.96
2022-10-03T17:44:00.792Z,13.94
2022-10-03T17:46:41.337Z,13.75
2022-10-03T17:49:23.212Z,13.58
2022-10-03T17:51:54.004Z,13.45
2022-10-03T17:54:27.873Z,13.45
2022-10-03T17:57:06.145Z,13.37
2022-10-03T17:59:44.410Z,13.30
2022-10-03T18:02:20.402Z,13.24
2022-10-03T18:05:00.422Z,13.13
2022-10-03T18:07:29.574Z,12.88
2022-10-03T18:09:57.737Z,12.70
2022-10-03T18:12:33.484Z,12.54
2022-10-03T18:15:23.559Z,12.51
2022-10-03T18:18:09.178Z,12.47
2022-10-03T18:20:48.655Z,12.38
2022-10-03T18:23:49.819Z,12.30
2022-10-03T18:26:24.852Z,12.30
2022-10-03T18:29:03.017Z,12.22
2022-10-03T18:31:35.108Z,12.17
2022-10-03T18:34:13.759Z,12.18
2022-10-03T18:36:48.519Z,12.11
2022-10-03T18:39:19.700Z,11.96
2022-10-03T18:41:50.390Z,11.86
2022-10-03T18:44:20.405Z,11.69
2022-10-03T18:46:54.651Z,11.64
2022-10-03T18:49:35.140Z,11.61
2022-10-03T18:52:12.883Z,11.53
2022-10-03T18:54:53.964Z,11.53
2022-10-03T18:57:27.862Z,11.42
2022-10-03T19:00:02.335Z,11.42
2022-10-03T19:02:36.474Z,11.41
2022-10-03T19:05:12.999Z,11.34
2022-10-03T19:07:52.055Z,11.24
2022-10-03T19:10:28.769Z,11.23
2022-10-03T19:13:04.932Z,11.09
2022-10-03T19:15:57.201Z,11.13
2022-10-03T19:18:28.430Z,11.16
2022-10-03T19:20:59.526Z,11.22
2022-10-03T19:23:36.353Z,11.22
2022-10-03T19:26:11.204Z,11.13
2022-10-03T19:28:46.031Z,11.17
2022-10-03T19:31:19.270Z,11.16
2022-10-03T19:33:52.257Z,11.16
2022-10-03T19:36:23.708Z,11.02
2022-10-03T19:38:54.857Z,10.98
2022-10-03T19:41:29.106Z,10.97
2022-10-03T19:44:03.358Z,11.03
2022-10-03T19:46:45.596Z,10.98
2022-10-03T19:49:35.502Z,10.98
2022-10-03T19:52:28.988Z,10.87
2022-10-03T19:55:06.018Z,10.68
2022-10-03T19:57:41.566Z,10.71
2022-10-03T20:00:23.383Z,10.64
2022-10-03T20:02:57.779Z,10.56
2022-10-03T20:05:33.457Z,10.46
2022-10-03T20:08:08.906Z,10.37
2022-10-03T20:11:16.204Z,10.41
2022-10-03T20:13:47.442Z,10.40
2022-10-03T20:16:17.675Z,10.41
2022-10-03T20:18:50.721Z,10.36
2022-10-03T20:21:21.606Z,10.29
2022-10-03T20:23:50.020Z,10.21
2022-10-03T20:26:26.067Z,10.16
2022-10-03T20:29:12.689Z,10.08
2022-10-03T20:31:41.692Z,10.03
2022-10-03T20:34:15.654Z,10.06
2022-10-03T20:36:50.595Z,9.97
2022-10-03T20:39:24.535Z,9.90
2022-10-03T20:42:01.358Z,9.84
2022-10-03T20:44:50.150Z,9.72
2022-10-03T20:47:38.279Z,9.76
2022-10-03T20:50:15.526Z,9.81
2022-10-03T20:52:49.678Z,9.91
2022-10-03T20:55:21.497Z,9.84
2022-10-03T20:57:59.403Z,9.97
2022-10-03T21:00:28.370Z,10.08
2022-10-03T21:03:02.849Z,10.16
2022-10-03T21:05:37.210Z,10.08
2022-10-03T21:08:12.671Z,10.06
2022-10-03T21:10:45.938Z,10.02
2022-10-03T21:13:21.164Z,9.90
2022-10-03T21:15:53.521Z,9.79
2022-10-03T21:18:24.485Z,9.68
2022-10-03T21:21:03.344Z,9.64
2022-10-03T21:28:26.962Z,9.56
2022-10-03T21:31:20.957Z,9.52
2022-10-03T21:33:58.347Z,9.33
2022-10-03T21:36:32.883Z,9.38
2022-10-03T21:39:14.126Z,9.52
2022-10-03T21:41:53.722Z,9.63
2022-10-03T21:44:48.003Z,9.67
2022-10-03T21:47:31.237Z,9.56
2022-10-03T21:50:02.627Z,9.52
2022-10-03T21:52:42.296Z,9.48
2022-10-03T21:55:45.425Z,9.42
2022-10-03T21:58:31.167Z,9.37
2022-10-03T22:01:08.045Z,9.55
2022-10-03T22:03:42.795Z,9.60
2022-10-03T22:06:19.685Z,9.48
2022-10-03T22:08:50.647Z,9.37
2022-10-03T22:11:32.041Z,9.46
2022-10-03T22:14:11.193Z,9.54
2022-10-03T22:16:46.062Z,9.33
2022-10-03T22:19:22.394Z,9.28
2022-10-03T22:22:10.836Z,9.24
2022-10-03T22:24:52.450Z,9.25
2022-10-03T22:27:26.562Z,9.37
2022-10-03T22:30:05.237Z,9.40
2022-10-03T22:32:41.780Z,9.36
2022-10-03T22:35:26.578Z,9.22
2022-10-03T22:37:56.136Z,9.05
2022-10-03T22:40:25.394Z,8.99
2022-10-03T22:42:56.685Z,9.02
2022-10-03T22:45:27.923Z,9.04
2022-10-03T22:47:59.532Z,9.06
2022-10-03T22:50:33.083Z,8.90
2022-10-03T22:53:02.346Z,8.87
2022-10-03T22:55:32.834Z,8.79
2022-10-03T22:58:02.907Z,8.74
2022-10-03T23:00:35.948Z,8.71
2022-10-03T23:03:11.520Z,8.77
2022-10-03T23:06:05.146Z,8.92
2022-10-03T23:08:46.686Z,8.89
2022-10-03T23:11:21.608Z,8.87
2022-10-03T23:13:50.782Z,8.82
2022-10-03T23:16:40.032Z,8.74
2022-10-03T23:19:24.975Z,8.71
2022-10-03T23:21:57.895Z,8.60
2022-10-03T23:24:32.189Z,8.62
2022-10-03T23:27:30.991Z,8.62
2022-10-03T23:30:35.992Z,8.48
2022-10-03T23:33:04.424Z,8.47
2022-10-03T23:35:41.557Z,8.36
2022-10-03T23:38:59.887Z,8.38
2022-10-03T23:41:44.266Z,8.36
2022-10-03T23:44:49.505Z,8.36
2022-10-03T23:47:21.300Z,8.32
2022-10-03T23:49:52.076Z,8.25
2022-10-03T23:52:26.140Z,8.24
2022-10-03T23:54:56.434Z,8.18
2022-10-03T23:57:31.506Z,8.00
